sensor_id;sensor_type;location;lat;lon;timestamp;P1;durP1;ratioP1;P2;durP2;ratioP2
30519;SDS011;17300;50.374;8.006;2024-03-06T00:02:04;5.20;;;4.70;;
30519;SDS011;17300;50.374;8.006;2024-03-06T00:04:31;4.87;;;4.47;;
30519;SDS011;17300;50.374;8.006;2024-03-06T00:06:58;5.23;;;4.63;;
30519;SDS011;17300;50.374;8.006;2024-03-06T00:09:25;4.80;;;4.40;;
30519;SDS011;17300;50.374;8.006;2024-03-06T00:11:52;4.80;;;4.40;;
30519;SDS011;17300;50.374;8.006;2024-03-06T00:14:19;5.13;;;4.70;;
30519;SDS011;17300;50.374;8.006;2024-03-06T00:16:48;5.17;;;4.40;;
30519;SDS011;17300;50.374;8.006;2024-03-06T00:19:16;4.83;;;4.43;;
30519;SDS011;17300;50.374;8.006;2024-03-06T00:21:42;5.63;;;5.13;;
30519;SDS011;17300;50.374;8.006;2024-03-06T00:24:11;4.80;;;4.40;;
30519;SDS011;17300;50.374;8.006;2024-03-06T00:26:39;4.60;;;4.20;;
30519;SDS011;17300;50.374;8.006;2024-03-06T00:29:05;5.20;;;4.23;;
30519;SDS011;17300;50.374;8.006;2024-03-06T00:31:32;5.00;;;4.53;;
30519;SDS011;17300;50.374;8.006;2024-03-06T00:34:00;5.20;;;4.50;;
30519;SDS011;17300;50.374;8.006;2024-03-06T00:36:27;5.23;;;4.73;;
30519;SDS011;17300;50.374;8.006;2024-03-06T00:38:54;5.20;;;4.63;;
30519;SDS011;17300;50.374;8.006;2024-03-06T00:41:20;5.70;;;5.20;;
30519;SDS011;17300;50.374;8.006;2024-03-06T00:43:48;5.93;;;5.37;;
30519;SDS011;17300;50.374;8.006;2024-03-06T00:46:15;5.70;;;5.20;;
30519;SDS011;17300;50.374;8.006;2024-03-06T00:48:42;5.90;;;5.30;;
30519;SDS011;17300;50.374;8.006;2024-03-06T00:51:10;5.43;;;4.80;;
30519;SDS011;17300;50.374;8.006;2024-03-06T00:53:37;5.60;;;5.10;;
30519;SDS011;17300;50.374;8.006;2024-03-06T00:56:04;5.60;;;5.10;;
30519;SDS011;17300;50.374;8.006;2024-03-06T00:58:31;5.50;;;5.00;;
30519;SDS011;17300;50.374;8.006;2024-03-06T01:00:58;5.20;;;4.70;;
30519;SDS011;17300;50.374;8.006;2024-03-06T01:03:25;5.57;;;5.07;;
30519;SDS011;17300;50.374;8.006;2024-03-06T01:05:51;5.67;;;5.17;;
30519;SDS011;17300;50.374;8.006;2024-03-06T01:08:19;5.60;;;5.10;;
30519;SDS011;17300;50.374;8.006;2024-03-06T01:10:49;5.40;;;4.90;;
30519;SDS011;17300;50.374;8.006;2024-03-06T01:13:16;5.50;;;5.00;;
30519;SDS011;17300;50.374;8.006;2024-03-06T01:15:43;5.03;;;4.57;;
30519;SDS011;17300;50.374;8.006;2024-03-06T01:18:10;5.37;;;4.87;;
30519;SDS011;17300;50.374;8.006;2024-03-06T01:20:37;5.07;;;4.57;;
30519;SDS011;17300;50.374;8.006;2024-03-06T01:23:04;5.63;;;4.87;;
30519;SDS011;17300;50.374;8.006;2024-03-06T01:25:32;4.90;;;4.50;;
30519;SDS011;17300;50.374;8.006;2024-03-06T01:27:59;5.20;;;4.80;;
30519;SDS011;17300;50.374;8.006;2024-03-06T01:30:26;4.93;;;4.53;;
30519;SDS011;17300;50.374;8.006;2024-03-06T01:32:52;5.93;;;4.50;;
30519;SDS011;17300;50.374;8.006;2024-03-06T01:35:19;4.50;;;4.10;;
30519;SDS011;17300;50.374;8.006;2024-03-06T01:37:46;4.30;;;3.90;;
30519;SDS011;17300;50.374;8.006;2024-03-06T01:40:13;4.37;;;3.97;;
30519;SDS011;17300;50.374;8.006;2024-03-06T01:42:41;4.20;;;3.80;;
30519;SDS011;17300;50.374;8.006;2024-03-06T01:45:08;4.10;;;3.70;;
30519;SDS011;17300;50.374;8.006;2024-03-06T01:47:35;4.33;;;3.93;;
30519;SDS011;17300;50.374;8.006;2024-03-06T01:50:01;3.87;;;3.57;;
30519;SDS011;17300;50.374;8.006;2024-03-06T01:52:31;4.47;;;4.03;;
30519;SDS011;17300;50.374;8.006;2024-03-06T01:54:57;4.10;;;3.80;;
30519;SDS011;17300;50.374;8.006;2024-03-06T01:57:24;3.37;;;3.07;;
30519;SDS011;17300;50.374;8.006;2024-03-06T01:59:52;3.90;;;3.60;;
30519;SDS011;17300;50.374;8.006;2024-03-06T02:02:19;4.07;;;3.67;;
30519;SDS011;17300;50.374;8.006;2024-03-06T02:04:46;3.83;;;3.27;;
30519;SDS011;17300;50.374;8.006;2024-03-06T02:07:13;3.70;;;3.40;;
30519;SDS011;17300;50.374;8.006;2024-03-06T02:09:42;3.80;;;3.37;;
30519;SDS011;17300;50.374;8.006;2024-03-06T02:12:09;3.57;;;3.27;;
30519;SDS011;17300;50.374;8.006;2024-03-06T02:14:37;3.50;;;3.20;;
30519;SDS011;17300;50.374;8.006;2024-03-06T02:17:05;4.17;;;3.33;;
30519;SDS011;17300;50.374;8.006;2024-03-06T02:19:39;3.40;;;3.10;;
30519;SDS011;17300;50.374;8.006;2024-03-06T02:22:08;2.90;;;2.70;;
30519;SDS011;17300;50.374;8.006;2024-03-06T02:24:35;2.87;;;2.67;;
30519;SDS011;17300;50.374;8.006;2024-03-06T02:27:02;2.60;;;2.40;;
30519;SDS011;17300;50.374;8.006;2024-03-06T02:29:30;2.47;;;2.27;;
30519;SDS011;17300;50.374;8.006;2024-03-06T02:31:57;2.90;;;2.70;;
30519;SDS011;17300;50.374;8.006;2024-03-06T02:34:24;3.00;;;2.80;;
30519;SDS011;17300;50.374;8.006;2024-03-06T02:36:51;3.03;;;2.83;;
30519;SDS011;17300;50.374;8.006;2024-03-06T02:39:19;2.67;;;2.47;;
30519;SDS011;17300;50.374;8.006;2024-03-06T02:41:46;3.17;;;2.93;;
30519;SDS011;17300;50.374;8.006;2024-03-06T02:44:13;2.73;;;2.53;;
30519;SDS011;17300;50.374;8.006;2024-03-06T02:46:45;2.90;;;2.70;;
30519;SDS011;17300;50.374;8.006;2024-03-06T02:49:13;2.53;;;2.33;;
30519;SDS011;17300;50.374;8.006;2024-03-06T02:51:39;2.80;;;2.60;;
30519;SDS011;17300;50.374;8.006;2024-03-06T02:54:06;2.50;;;2.30;;
30519;SDS011;17300;50.374;8.006;2024-03-06T02:56:34;3.10;;;2.90;;
30519;SDS011;17300;50.374;8.006;2024-03-06T02:59:01;3.23;;;2.93;;
30519;SDS011;17300;50.374;8.006;2024-03-06T03:01:29;3.30;;;3.00;;
30519;SDS011;17300;50.374;8.006;2024-03-06T03:03:56;3.80;;;3.43;;
30519;SDS011;17300;50.374;8.006;2024-03-06T03:06:23;3.47;;;3.17;;
30519;SDS011;17300;50.374;8.006;2024-03-06T03:08:50;3.23;;;3.03;;
30519;SDS011;17300;50.374;8.006;2024-03-06T03:11:16;3.63;;;3.33;;
30519;SDS011;17300;50.374;8.006;2024-03-06T03:13:44;3.33;;;3.03;;
30519;SDS011;17300;50.374;8.006;2024-03-06T03:16:15;3.50;;;3.20;;
30519;SDS011;17300;50.374;8.006;2024-03-06T03:18:43;3.43;;;3.10;;
30519;SDS011;17300;50.374;8.006;2024-03-06T03:21:10;3.50;;;3.20;;
30519;SDS011;17300;50.374;8.006;2024-03-06T03:23:37;3.27;;;3.03;;
30519;SDS011;17300;50.374;8.006;2024-03-06T03:26:04;3.50;;;3.20;;
30519;SDS011;17300;50.374;8.006;2024-03-06T03:28:31;2.93;;;2.73;;
30519;SDS011;17300;50.374;8.006;2024-03-06T03:30:59;3.10;;;2.80;;
30519;SDS011;17300;50.374;8.006;2024-03-06T03:33:26;3.17;;;2.97;;
30519;SDS011;17300;50.374;8.006;2024-03-06T03:35:53;3.00;;;2.80;;
30519;SDS011;17300;50.374;8.006;2024-03-06T03:38:19;3.27;;;2.90;;
30519;SDS011;17300;50.374;8.006;2024-03-06T03:40:46;3.00;;;2.80;;
30519;SDS011;17300;50.374;8.006;2024-03-06T03:43:13;3.20;;;2.90;;
30519;SDS011;17300;50.374;8.006;2024-03-06T03:45:39;3.23;;;3.00;;
30519;SDS011;17300;50.374;8.006;2024-03-06T03:48:07;3.07;;;2.87;;
30519;SDS011;17300;50.374;8.006;2024-03-06T03:50:34;3.23;;;2.93;;
30519;SDS011;17300;50.374;8.006;2024-03-06T03:53:01;2.83;;;2.63;;
30519;SDS011;17300;50.374;8.006;2024-03-06T03:55:28;3.33;;;3.03;;
30519;SDS011;17300;50.374;8.006;2024-03-06T03:57:54;3.53;;;3.10;;
30519;SDS011;17300;50.374;8.006;2024-03-06T04:00:21;3.50;;;3.20;;
30519;SDS011;17300;50.374;8.006;2024-03-06T04:02:48;3.70;;;3.40;;
30519;SDS011;17300;50.374;8.006;2024-03-06T04:05:16;3.40;;;3.10;;
30519;SDS011;17300;50.374;8.006;2024-03-06T04:07:43;3.60;;;3.30;;
30519;SDS011;17300;50.374;8.006;2024-03-06T04:10:10;3.80;;;3.50;;
30519;SDS011;17300;50.374;8.006;2024-03-06T04:12:37;3.43;;;3.13;;
30519;SDS011;17300;50.374;8.006;2024-03-06T04:15:05;3.60;;;3.30;;
30519;SDS011;17300;50.374;8.006;2024-03-06T04:17:33;3.57;;;3.27;;
30519;SDS011;17300;50.374;8.006;2024-03-06T04:20:00;3.37;;;3.07;;
30519;SDS011;17300;50.374;8.006;2024-03-06T04:22:30;3.40;;;3.10;;
30519;SDS011;17300;50.374;8.006;2024-03-06T04:24:56;3.50;;;3.20;;
30519;SDS011;17300;50.374;8.006;2024-03-06T04:27:24;3.63;;;3.20;;
30519;SDS011;17300;50.374;8.006;2024-03-06T04:29:50;3.33;;;3.03;;
30519;SDS011;17300;50.374;8.006;2024-03-06T04:32:17;3.67;;;3.30;;
30519;SDS011;17300;50.374;8.006;2024-03-06T04:34:44;5.30;;;4.80;;
30519;SDS011;17300;50.374;8.006;2024-03-06T04:37:11;5.73;;;5.13;;
30519;SDS011;17300;50.374;8.006;2024-03-06T04:39:39;4.10;;;3.70;;
30519;SDS011;17300;50.374;8.006;2024-03-06T04:42:06;4.07;;;3.67;;
30519;SDS011;17300;50.374;8.006;2024-03-06T04:44:33;3.60;;;3.30;;
30519;SDS011;17300;50.374;8.006;2024-03-06T04:47:00;3.83;;;3.53;;
30519;SDS011;17300;50.374;8.006;2024-03-06T04:49:27;3.83;;;3.43;;
30519;SDS011;17300;50.374;8.006;2024-03-06T04:51:54;3.87;;;3.47;;
30519;SDS011;17300;50.374;8.006;2024-03-06T04:54:20;4.00;;;3.70;;
30519;SDS011;17300;50.374;8.006;2024-03-06T04:56:48;4.30;;;3.90;;
30519;SDS011;17300;50.374;8.006;2024-03-06T04:59:15;4.23;;;3.70;;
30519;SDS011;17300;50.374;8.006;2024-03-06T05:01:42;3.80;;;3.30;;
30519;SDS011;17300;50.374;8.006;2024-03-06T05:04:09;3.80;;;3.50;;
30519;SDS011;17300;50.374;8.006;2024-03-06T05:06:36;6.20;;;3.97;;
30519;SDS011;17300;50.374;8.006;2024-03-06T05:09:03;3.57;;;3.27;;
30519;SDS011;17300;50.374;8.006;2024-03-06T05:11:30;4.10;;;3.23;;
30519;SDS011;17300;50.374;8.006;2024-03-06T05:13:59;4.13;;;3.73;;
30519;SDS011;17300;50.374;8.006;2024-03-06T05:16:26;3.53;;;3.23;;
30519;SDS011;17300;50.374;8.006;2024-03-06T05:18:53;4.20;;;3.80;;
30519;SDS011;17300;50.374;8.006;2024-03-06T05:21:19;4.93;;;3.80;;
30519;SDS011;17300;50.374;8.006;2024-03-06T05:23:47;3.80;;;3.50;;
30519;SDS011;17300;50.374;8.006;2024-03-06T05:26:14;3.90;;;3.60;;
30519;SDS011;17300;50.374;8.006;2024-03-06T05:28:41;4.00;;;3.57;;
30519;SDS011;17300;50.374;8.006;2024-03-06T05:31:16;4.43;;;3.40;;
30519;SDS011;17300;50.374;8.006;2024-03-06T05:33:46;4.47;;;3.63;;
30519;SDS011;17300;50.374;8.006;2024-03-06T05:36:13;7.53;;;4.93;;
30519;SDS011;17300;50.374;8.006;2024-03-06T05:38:40;5.07;;;3.83;;
30519;SDS011;17300;50.374;8.006;2024-03-06T05:41:07;4.20;;;3.80;;
30519;SDS011;17300;50.374;8.006;2024-03-06T05:43:34;6.67;;;3.80;;
30519;SDS011;17300;50.374;8.006;2024-03-06T05:46:01;7.13;;;4.00;;
30519;SDS011;17300;50.374;8.006;2024-03-06T05:48:29;11.30;;;3.87;;
30519;SDS011;17300;50.374;8.006;2024-03-06T05:50:56;9.20;;;3.87;;
30519;SDS011;17300;50.374;8.006;2024-03-06T05:53:23;5.77;;;3.40;;
30519;SDS011;17300;50.374;8.006;2024-03-06T05:55:49;4.23;;;3.30;;
30519;SDS011;17300;50.374;8.006;2024-03-06T05:58:17;8.60;;;3.47;;
30519;SDS011;17300;50.374;8.006;2024-03-06T06:00:43;4.63;;;3.20;;
30519;SDS011;17300;50.374;8.006;2024-03-06T06:03:10;3.77;;;3.33;;
30519;SDS011;17300;50.374;8.006;2024-03-06T06:05:38;6.23;;;3.93;;
30519;SDS011;17300;50.374;8.006;2024-03-06T06:08:06;4.70;;;3.60;;
30519;SDS011;17300;50.374;8.006;2024-03-06T06:10:32;3.90;;;3.60;;
30519;SDS011;17300;50.374;8.006;2024-03-06T06:12:59;3.93;;;3.53;;
30519;SDS011;17300;50.374;8.006;2024-03-06T06:15:28;4.00;;;3.60;;
30519;SDS011;17300;50.374;8.006;2024-03-06T06:17:55;4.17;;;3.77;;
30519;SDS011;17300;50.374;8.006;2024-03-06T06:20:22;4.67;;;3.60;;
30519;SDS011;17300;50.374;8.006;2024-03-06T06:22:50;4.17;;;3.77;;
30519;SDS011;17300;50.374;8.006;2024-03-06T06:25:17;4.43;;;3.63;;
30519;SDS011;17300;50.374;8.006;2024-03-06T06:27:44;3.50;;;3.20;;
30519;SDS011;17300;50.374;8.006;2024-03-06T06:30:11;3.67;;;3.27;;
30519;SDS011;17300;50.374;8.006;2024-03-06T06:32:38;3.27;;;2.97;;
30519;SDS011;17300;50.374;8.006;2024-03-06T06:35:05;3.47;;;3.17;;
30519;SDS011;17300;50.374;8.006;2024-03-06T06:37:33;3.93;;;3.10;;
30519;SDS011;17300;50.374;8.006;2024-03-06T06:40:01;3.87;;;3.57;;
30519;SDS011;17300;50.374;8.006;2024-03-06T06:42:31;3.50;;;2.93;;
30519;SDS011;17300;50.374;8.006;2024-03-06T06:44:58;3.50;;;3.20;;
30519;SDS011;17300;50.374;8.006;2024-03-06T06:47:25;4.17;;;3.27;;
30519;SDS011;17300;50.374;8.006;2024-03-06T06:49:52;5.10;;;3.57;;
30519;SDS011;17300;50.374;8.006;2024-03-06T06:52:18;4.53;;;4.03;;
30519;SDS011;17300;50.374;8.006;2024-03-06T06:54:45;4.17;;;3.77;;
30519;SDS011;17300;50.374;8.006;2024-03-06T06:57:15;4.10;;;3.70;;
30519;SDS011;17300;50.374;8.006;2024-03-06T06:59:41;4.00;;;3.50;;
30519;SDS011;17300;50.374;8.006;2024-03-06T07:02:08;3.70;;;3.33;;
30519;SDS011;17300;50.374;8.006;2024-03-06T07:04:35;4.57;;;4.13;;
30519;SDS011;17300;50.374;8.006;2024-03-06T07:07:02;4.53;;;4.13;;
30519;SDS011;17300;50.374;8.006;2024-03-06T07:09:28;5.07;;;4.57;;
30519;SDS011;17300;50.374;8.006;2024-03-06T07:11:55;6.73;;;3.93;;
30519;SDS011;17300;50.374;8.006;2024-03-06T07:14:23;6.27;;;4.50;;
30519;SDS011;17300;50.374;8.006;2024-03-06T07:16:50;5.53;;;4.37;;
30519;SDS011;17300;50.374;8.006;2024-03-06T07:19:17;5.77;;;4.60;;
30519;SDS011;17300;50.374;8.006;2024-03-06T07:21:43;6.23;;;4.87;;
30519;SDS011;17300;50.374;8.006;2024-03-06T07:24:10;5.50;;;5.00;;
30519;SDS011;17300;50.374;8.006;2024-03-06T07:26:37;7.50;;;5.57;;
30519;SDS011;17300;50.374;8.006;2024-03-06T07:29:03;8.97;;;7.33;;
30519;SDS011;17300;50.374;8.006;2024-03-06T07:31:39;12.93;;;9.77;;
30519;SDS011;17300;50.374;8.006;2024-03-06T07:34:06;10.30;;;8.57;;
30519;SDS011;17300;50.374;8.006;2024-03-06T07:36:33;9.27;;;7.00;;
30519;SDS011;17300;50.374;8.006;2024-03-06T07:39:00;8.27;;;6.10;;
30519;SDS011;17300;50.374;8.006;2024-03-06T07:41:26;8.03;;;6.33;;
30519;SDS011;17300;50.374;8.006;2024-03-06T07:43:53;10.00;;;5.90;;
30519;SDS011;17300;50.374;8.006;2024-03-06T07:46:20;7.93;;;6.60;;
30519;SDS011;17300;50.374;8.006;2024-03-06T07:48:48;9.80;;;6.57;;
30519;SDS011;17300;50.374;8.006;2024-03-06T07:51:16;9.07;;;6.57;;
30519;SDS011;17300;50.374;8.006;2024-03-06T07:53:43;7.23;;;5.73;;
30519;SDS011;17300;50.374;8.006;2024-03-06T07:56:10;8.30;;;6.23;;
30519;SDS011;17300;50.374;8.006;2024-03-06T07:58:37;8.37;;;6.20;;
30519;SDS011;17300;50.374;8.006;2024-03-06T08:01:04;7.13;;;6.20;;
30519;SDS011;17300;50.374;8.006;2024-03-06T08:03:32;6.60;;;5.87;;
30519;SDS011;17300;50.374;8.006;2024-03-06T08:06:00;6.97;;;5.43;;
30519;SDS011;17300;50.374;8.006;2024-03-06T08:08:28;6.03;;;5.43;;
30519;SDS011;17300;50.374;8.006;2024-03-06T08:10:55;8.37;;;5.43;;
30519;SDS011;17300;50.374;8.006;2024-03-06T08:13:22;6.83;;;5.47;;
30519;SDS011;17300;50.374;8.006;2024-03-06T08:16:12;6.63;;;5.97;;
30519;SDS011;17300;50.374;8.006;2024-03-06T08:18:39;6.93;;;6.17;;
30519;SDS011;17300;50.374;8.006;2024-03-06T08:21:07;6.67;;;5.97;;
30519;SDS011;17300;50.374;8.006;2024-03-06T08:23:37;6.53;;;5.83;;
30519;SDS011;17300;50.374;8.006;2024-03-06T08:26:03;7.60;;;6.20;;
30519;SDS011;17300;50.374;8.006;2024-03-06T08:28:30;6.83;;;6.13;;
30519;SDS011;17300;50.374;8.006;2024-03-06T08:30:57;6.63;;;6.03;;
30519;SDS011;17300;50.374;8.006;2024-03-06T08:37:07;7.40;;;6.17;;
30519;SDS011;17300;50.374;8.006;2024-03-06T08:39:43;6.63;;;5.57;;
30519;SDS011;17300;50.374;8.006;2024-03-06T08:42:10;8.67;;;6.23;;
30519;SDS011;17300;50.374;8.006;2024-03-06T08:44:41;5.87;;;5.27;;
30519;SDS011;17300;50.374;8.006;2024-03-06T08:47:28;6.47;;;5.87;;
30519;SDS011;17300;50.374;8.006;2024-03-06T08:50:07;13.40;;;11.27;;
30519;SDS011;17300;50.374;8.006;2024-03-06T08:52:47;9.80;;;8.63;;
30519;SDS011;17300;50.374;8.006;2024-03-06T08:55:14;8.80;;;7.90;;
30519;SDS011;17300;50.374;8.006;2024-03-06T09:04:28;6.83;;;5.63;;
30519;SDS011;17300;50.374;8.006;2024-03-06T09:06:56;5.90;;;5.30;;
30519;SDS011;17300;50.374;8.006;2024-03-06T09:09:30;10.10;;;7.10;;
30519;SDS011;17300;50.374;8.006;2024-03-06T09:11:58;7.43;;;6.73;;
30519;SDS011;17300;50.374;8.006;2024-03-06T09:14:25;7.63;;;6.83;;
30519;SDS011;17300;50.374;8.006;2024-03-06T09:16:52;7.60;;;6.43;;
30519;SDS011;17300;50.374;8.006;2024-03-06T09:19:19;6.30;;;5.70;;
30519;SDS011;17300;50.374;8.006;2024-03-06T09:21:45;7.23;;;5.50;;
30519;SDS011;17300;50.374;8.006;2024-03-06T09:24:13;6.53;;;5.93;;
30519;SDS011;17300;50.374;8.006;2024-03-06T09:26:45;6.50;;;5.90;;
30519;SDS011;17300;50.374;8.006;2024-03-06T09:29:26;6.40;;;5.73;;
30519;SDS011;17300;50.374;8.006;2024-03-06T09:31:52;6.40;;;5.80;;
30519;SDS011;17300;50.374;8.006;2024-03-06T09:34:19;6.40;;;5.80;;
30519;SDS011;17300;50.374;8.006;2024-03-06T09:36:47;6.60;;;6.00;;
30519;SDS011;17300;50.374;8.006;2024-03-06T09:39:14;6.87;;;6.17;;
30519;SDS011;17300;50.374;8.006;2024-03-06T09:41:43;5.97;;;5.37;;
30519;SDS011;17300;50.374;8.006;2024-03-06T09:44:11;7.33;;;6.50;;
30519;SDS011;17300;50.374;8.006;2024-03-06T09:46:38;7.03;;;6.33;;
30519;SDS011;17300;50.374;8.006;2024-03-06T09:49:07;6.60;;;6.00;;
30519;SDS011;17300;50.374;8.006;2024-03-06T09:51:35;7.10;;;6.40;;
30519;SDS011;17300;50.374;8.006;2024-03-06T09:54:06;7.40;;;6.67;;
30519;SDS011;17300;50.374;8.006;2024-03-06T11:04:32;10.80;;;9.70;;
30519;SDS011;17300;50.374;8.006;2024-03-06T11:07:01;10.43;;;9.43;;
30519;SDS011;17300;50.374;8.006;2024-03-06T11:09:32;9.90;;;9.00;;
30519;SDS011;17300;50.374;8.006;2024-03-06T11:12:00;10.33;;;9.37;;
30519;SDS011;17300;50.374;8.006;2024-03-06T11:14:30;10.93;;;9.83;;
30519;SDS011;17300;50.374;8.006;2024-03-06T11:16:57;10.27;;;9.27;;
30519;SDS011;17300;50.374;8.006;2024-03-06T11:19:26;9.40;;;8.60;;
30519;SDS011;17300;50.374;8.006;2024-03-06T11:21:55;10.27;;;9.27;;
30519;SDS011;17300;50.374;8.006;2024-03-06T11:24:23;10.37;;;9.47;;
30519;SDS011;17300;50.374;8.006;2024-03-06T11:26:57;10.43;;;9.53;;
30519;SDS011;17300;50.374;8.006;2024-03-06T11:29:27;10.85;;;9.82;;
30519;SDS011;17300;50.374;8.006;2024-03-06T11:31:59;10.00;;;9.13;;
30519;SDS011;17300;50.374;8.006;2024-03-06T11:34:28;9.90;;;9.00;;
30519;SDS011;17300;50.374;8.006;2024-03-06T11:36:58;9.93;;;9.13;;
30519;SDS011;17300;50.374;8.006;2024-03-06T11:39:27;10.07;;;9.23;;
30519;SDS011;17300;50.374;8.006;2024-03-06T11:41:55;9.07;;;8.27;;
30519;SDS011;17300;50.374;8.006;2024-03-06T11:44:23;8.90;;;8.20;;
30519;SDS011;17300;50.374;8.006;2024-03-06T11:46:56;8.98;;;8.25;;
30519;SDS011;17300;50.374;8.006;2024-03-06T11:49:24;8.20;;;7.57;;
30519;SDS011;17300;50.374;8.006;2024-03-06T11:51:55;8.07;;;7.47;;
30519;SDS011;17300;50.374;8.006;2024-03-06T11:54:23;8.25;;;7.57;;
30519;SDS011;17300;50.374;8.006;2024-03-06T11:56:52;7.97;;;7.38;;
30519;SDS011;17300;50.374;8.006;2024-03-06T11:59:20;7.72;;;7.13;;
30519;SDS011;17300;50.374;8.006;2024-03-06T12:01:48;7.88;;;7.28;;
30519;SDS011;17300;50.374;8.006;2024-03-06T12:04:15;7.75;;;7.10;;
30519;SDS011;17300;50.374;8.006;2024-03-06T12:06:42;7.78;;;7.18;;
30519;SDS011;17300;50.374;8.006;2024-03-06T12:09:10;7.60;;;7.00;;
30519;SDS011;17300;50.374;8.006;2024-03-06T12:11:37;8.10;;;7.50;;
30519;SDS011;17300;50.374;8.006;2024-03-06T12:14:04;6.85;;;6.32;;
30519;SDS011;17300;50.374;8.006;2024-03-06T12:16:30;18.85;;;17.15;;
30519;SDS011;17300;50.374;8.006;2024-03-06T12:18:57;10.30;;;9.40;;
30519;SDS011;17300;50.374;8.006;2024-03-06T12:21:27;8.02;;;7.43;;
30519;SDS011;17300;50.374;8.006;2024-03-06T12:24:01;8.05;;;7.45;;
30519;SDS011;17300;50.374;8.006;2024-03-06T12:26:30;7.65;;;7.05;;
30519;SDS011;17300;50.374;8.006;2024-03-06T12:29:03;6.90;;;6.40;;
30519;SDS011;17300;50.374;8.006;2024-03-06T12:31:34;7.38;;;6.78;;
30519;SDS011;17300;50.374;8.006;2024-03-06T12:34:02;7.55;;;6.95;;
30519;SDS011;17300;50.374;8.006;2024-03-06T12:36:29;11.75;;;10.75;;
30519;SDS011;17300;50.374;8.006;2024-03-06T12:38:58;8.63;;;7.95;;
30519;SDS011;17300;50.374;8.006;2024-03-06T12:41:25;7.93;;;7.32;;
30519;SDS011;17300;50.374;8.006;2024-03-06T12:43:54;7.05;;;6.55;;
30519;SDS011;17300;50.374;8.006;2024-03-06T12:46:21;7.28;;;6.75;;
30519;SDS011;17300;50.374;8.006;2024-03-06T12:48:48;6.50;;;6.00;;
30519;SDS011;17300;50.374;8.006;2024-03-06T12:51:16;6.80;;;6.28;;
30519;SDS011;17300;50.374;8.006;2024-03-06T12:53:42;7.32;;;6.78;;
30519;SDS011;17300;50.374;8.006;2024-03-06T12:56:09;7.10;;;6.57;;
30519;SDS011;17300;50.374;8.006;2024-03-06T12:58:36;6.43;;;5.93;;
30519;SDS011;17300;50.374;8.006;2024-03-06T13:01:04;6.85;;;6.25;;
30519;SDS011;17300;50.374;8.006;2024-03-06T13:03:31;6.38;;;5.90;;
30519;SDS011;17300;50.374;8.006;2024-03-06T13:05:58;6.18;;;5.68;;
30519;SDS011;17300;50.374;8.006;2024-03-06T13:08:25;6.05;;;5.55;;
30519;SDS011;17300;50.374;8.006;2024-03-06T13:10:54;5.68;;;5.28;;
30519;SDS011;17300;50.374;8.006;2024-03-06T13:13:21;6.05;;;5.55;;
30519;SDS011;17300;50.374;8.006;2024-03-06T13:18:36;6.10;;;5.60;;
30519;SDS011;17300;50.374;8.006;2024-03-06T13:21:03;5.50;;;5.10;;
30519;SDS011;17300;50.374;8.006;2024-03-06T13:23:30;6.22;;;5.72;;
30519;SDS011;17300;50.374;8.006;2024-03-06T13:25:57;6.25;;;5.75;;
30519;SDS011;17300;50.374;8.006;2024-03-06T13:28:24;6.00;;;5.50;;
30519;SDS011;17300;50.374;8.006;2024-03-06T13:30:51;6.07;;;5.57;;
30519;SDS011;17300;50.374;8.006;2024-03-06T13:33:19;5.82;;;5.32;;
30519;SDS011;17300;50.374;8.006;2024-03-06T13:35:45;6.10;;;5.65;;
30519;SDS011;17300;50.374;8.006;2024-03-06T13:38:12;5.75;;;5.35;;
30519;SDS011;17300;50.374;8.006;2024-03-06T13:40:39;6.28;;;5.78;;
30519;SDS011;17300;50.374;8.006;2024-03-06T13:43:05;6.03;;;5.53;;
30519;SDS011;17300;50.374;8.006;2024-03-06T13:45:34;5.65;;;5.25;;
30519;SDS011;17300;50.374;8.006;2024-03-06T13:48:02;5.45;;;5.05;;
30519;SDS011;17300;50.374;8.006;2024-03-06T13:50:33;5.72;;;5.32;;
30519;SDS011;17300;50.374;8.006;2024-03-06T13:53:06;6.03;;;5.53;;
30519;SDS011;17300;50.374;8.006;2024-03-06T13:55:45;6.32;;;5.65;;
30519;SDS011;17300;50.374;8.006;2024-03-06T13:58:25;6.03;;;5.53;;
30519;SDS011;17300;50.374;8.006;2024-03-06T14:03:50;4.50;;;4.20;;
30519;SDS011;17300;50.374;8.006;2024-03-06T14:06:18;5.00;;;4.60;;
30519;SDS011;17300;50.374;8.006;2024-03-06T14:17:52;4.68;;;4.30;;
30519;SDS011;17300;50.374;8.006;2024-03-06T14:20:44;5.25;;;4.82;;
30519;SDS011;17300;50.374;8.006;2024-03-06T14:29:45;5.27;;;4.77;;
30519;SDS011;17300;50.374;8.006;2024-03-06T14:32:12;6.37;;;5.77;;
30519;SDS011;17300;50.374;8.006;2024-03-06T14:34:57;6.20;;;5.70;;
30519;SDS011;17300;50.374;8.006;2024-03-06T14:38:02;5.63;;;5.13;;
30519;SDS011;17300;50.374;8.006;2024-03-06T14:40:59;5.53;;;5.03;;
30519;SDS011;17300;50.374;8.006;2024-03-06T14:44:08;5.40;;;5.00;;
30519;SDS011;17300;50.374;8.006;2024-03-06T15:03:11;5.30;;;4.80;;
30519;SDS011;17300;50.374;8.006;2024-03-06T15:23:39;5.23;;;4.73;;
30519;SDS011;17300;50.374;8.006;2024-03-06T15:26:06;5.17;;;4.50;;
30519;SDS011;17300;50.374;8.006;2024-03-06T15:28:32;5.50;;;5.00;;
30519;SDS011;17300;50.374;8.006;2024-03-06T15:30:59;5.60;;;5.10;;
30519;SDS011;17300;50.374;8.006;2024-03-06T15:33:28;5.60;;;5.10;;
30519;SDS011;17300;50.374;8.006;2024-03-06T15:35:55;5.30;;;4.87;;
30519;SDS011;17300;50.374;8.006;2024-03-06T15:38:24;5.20;;;4.70;;
30519;SDS011;17300;50.374;8.006;2024-03-06T15:44:02;5.07;;;4.63;;
30519;SDS011;17300;50.374;8.006;2024-03-06T15:46:28;5.47;;;4.97;;
30519;SDS011;17300;50.374;8.006;2024-03-06T15:48:56;5.37;;;4.87;;
30519;SDS011;17300;50.374;8.006;2024-03-06T15:51:23;5.93;;;5.43;;
30519;SDS011;17300;50.374;8.006;2024-03-06T15:53:49;6.00;;;5.50;;
30519;SDS011;17300;50.374;8.006;2024-03-06T15:56:17;8.23;;;7.50;;
30519;SDS011;17300;50.374;8.006;2024-03-06T15:58:44;11.00;;;9.93;;
30519;SDS011;17300;50.374;8.006;2024-03-06T16:01:12;8.70;;;7.90;;
30519;SDS011;17300;50.374;8.006;2024-03-06T16:03:38;7.10;;;6.50;;
30519;SDS011;17300;50.374;8.006;2024-03-06T16:06:05;6.43;;;5.83;;
30519;SDS011;17300;50.374;8.006;2024-03-06T16:08:33;6.60;;;6.00;;
30519;SDS011;17300;50.374;8.006;2024-03-06T16:10:59;5.90;;;5.33;;
30519;SDS011;17300;50.374;8.006;2024-03-06T16:13:26;5.90;;;5.30;;
30519;SDS011;17300;50.374;8.006;2024-03-06T16:15:53;5.90;;;5.30;;
30519;SDS011;17300;50.374;8.006;2024-03-06T16:18:21;5.57;;;5.07;;
30519;SDS011;17300;50.374;8.006;2024-03-06T16:20:48;6.13;;;5.53;;
30519;SDS011;17300;50.374;8.006;2024-03-06T16:23:14;5.97;;;5.47;;
30519;SDS011;17300;50.374;8.006;2024-03-06T16:25:41;5.87;;;5.27;;
30519;SDS011;17300;50.374;8.006;2024-03-06T16:28:08;5.90;;;5.33;;
30519;SDS011;17300;50.374;8.006;2024-03-06T16:30:35;5.87;;;5.33;;
30519;SDS011;17300;50.374;8.006;2024-03-06T16:33:02;18.93;;;16.73;;
30519;SDS011;17300;50.374;8.006;2024-03-06T16:35:30;16.07;;;13.53;;
30519;SDS011;17300;50.374;8.006;2024-03-06T16:37:57;10.03;;;9.03;;
30519;SDS011;17300;50.374;8.006;2024-03-06T16:40:24;8.77;;;7.77;;
30519;SDS011;17300;50.374;8.006;2024-03-06T16:42:51;7.53;;;6.83;;
30519;SDS011;17300;50.374;8.006;2024-03-06T16:45:18;7.73;;;7.03;;
30519;SDS011;17300;50.374;8.006;2024-03-06T16:47:45;7.20;;;6.50;;
30519;SDS011;17300;50.374;8.006;2024-03-06T16:50:13;7.90;;;6.50;;
30519;SDS011;17300;50.374;8.006;2024-03-06T16:52:41;6.40;;;5.80;;
30519;SDS011;17300;50.374;8.006;2024-03-06T16:55:08;5.83;;;5.33;;
30519;SDS011;17300;50.374;8.006;2024-03-06T16:57:35;6.93;;;6.30;;
30519;SDS011;17300;50.374;8.006;2024-03-06T17:00:02;6.27;;;5.67;;
30519;SDS011;17300;50.374;8.006;2024-03-06T17:02:30;7.17;;;6.47;;
30519;SDS011;17300;50.374;8.006;2024-03-06T17:04:57;6.80;;;6.20;;
30519;SDS011;17300;50.374;8.006;2024-03-06T17:07:23;7.57;;;6.87;;
30519;SDS011;17300;50.374;8.006;2024-03-06T17:09:51;10.07;;;9.07;;